createdAt,value
2022-09-16T00:00:21.611Z,100.00
2022-09-16T00:02:48.704Z,100.00
2022-09-16T00:05:15.769Z,100.00
2022-09-16T00:07:43.043Z,100.00
2022-09-16T00:10:10.276Z,100.00
2022-09-16T00:12:38.850Z,100.00
2022-09-16T00:15:07.018Z,100.00
2022-09-16T00:17:34.844Z,100.00
2022-09-16T00:20:02.424Z,100.00
2022-09-16T00:22:29.775Z,100.00
2022-09-16T00:24:57.266Z,100.00
2022-09-16T00:27:24.379Z,100.00
2022-09-16T00:29:51.487Z,100.00
2022-09-16T00:32:18.584Z,100.00
2022-09-16T00:34:45.687Z,100.00
2022-09-16T00:37:12.786Z,100.00
2022-09-16T00:39:39.826Z,100.00
2022-09-16T00:42:07.103Z,100.00
2022-09-16T00:45:11.931Z,100.00
2022-09-16T00:47:42.243Z,100.00
2022-09-16T00:50:23.496Z,100.00
2022-09-16T00:52:50.639Z,100.00
2022-09-16T00:55:18.977Z,100.00
2022-09-16T00:57:46.049Z,100.00
2022-09-16T01:00:14.005Z,100.00
2022-09-16T01:02:42.322Z,100.00
2022-09-16T01:05:12.302Z,100.00
2022-09-16T01:07:44.408Z,100.00
2022-09-16T01:10:12.825Z,100.00
2022-09-16T01:12:42.551Z,100.00
2022-09-16T01:15:10.959Z,100.00
2022-09-16T01:17:50.480Z,100.00
2022-09-16T01:20:25.032Z,100.00
2022-09-16T01:22:52.077Z,100.00
2022-09-16T01:25:38.222Z,100.00
2022-09-16T01:28:16.185Z,100.00
2022-09-16T01:30:44.368Z,100.00
2022-09-16T01:33:16.647Z,100.00
2022-09-16T01:35:47.242Z,100.00
2022-09-16T01:38:22.933Z,100.00
2022-09-16T01:40:50.896Z,100.00
2022-09-16T01:43:19.215Z,100.00
2022-09-16T01:45:51.945Z,100.00
2022-09-16T01:48:28.261Z,100.00
2022-09-16T01:51:01.497Z,100.00
2022-09-16T01:53:38.825Z,100.00
2022-09-16T01:56:09.524Z,100.00
2022-09-16T01:58:36.633Z,100.00
2022-09-16T02:01:05.945Z,100.00
2022-09-16T02:03:34.285Z,100.00
2022-09-16T02:06:10.967Z,100.00
2022-09-16T02:08:39.982Z,100.00
2022-09-16T02:11:08.094Z,100.00
2022-09-16T02:13:39.807Z,100.00
2022-09-16T02:16:10.455Z,100.00
2022-09-16T02:18:39.925Z,100.00
2022-09-16T02:21:07.267Z,100.00
2022-09-16T02:23:36.881Z,100.00
2022-09-16T02:26:03.965Z,100.00
2022-09-16T02:28:33.169Z,100.00
2022-09-16T02:31:01.666Z,100.00
2022-09-16T02:33:33.651Z,100.00
2022-09-16T02:36:00.684Z,100.00
2022-09-16T02:38:30.547Z,100.00
2022-09-16T02:40:58.245Z,100.00
2022-09-16T02:43:25.961Z,100.00
2022-09-16T02:46:06.364Z,100.00
2022-09-16T02:48:36.464Z,100.00
2022-09-16T02:51:23.545Z,100.00
2022-09-16T02:53:58.498Z,100.00
2022-09-16T02:56:31.728Z,100.00
2022-09-16T02:58:58.767Z,100.00
2022-09-16T03:01:25.981Z,100.00
2022-09-16T03:03:54.535Z,100.00
2022-09-16T03:06:22.481Z,100.00
2022-09-16T03:08:49.597Z,100.00
2022-09-16T03:11:32.301Z,100.00
2022-09-16T03:14:22.555Z,100.00
2022-09-16T03:17:03.453Z,100.00
2022-09-16T03:19:33.430Z,100.00
2022-09-16T03:22:06.569Z,100.00
2022-09-16T03:24:51.107Z,100.00
2022-09-16T03:27:23.331Z,100.00
2022-09-16T03:29:55.502Z,100.00
2022-09-16T03:32:23.229Z,100.00
2022-09-16T03:35:10.625Z,100.00
2022-09-16T03:37:37.758Z,100.00
2022-09-16T03:40:06.243Z,100.00
2022-09-16T03:42:34.025Z,100.00
2022-09-16T03:45:01.138Z,100.00
2022-09-16T03:47:28.225Z,100.00
2022-09-16T03:49:55.382Z,100.00
2022-09-16T03:52:22.622Z,100.00
2022-09-16T03:54:49.646Z,100.00
2022-09-16T03:57:16.950Z,100.00
2022-09-16T03:59:44.284Z,100.00
2022-09-16T04:02:11.403Z,100.00
2022-09-16T04:04:38.511Z,100.00
2022-09-16T04:07:05.590Z,100.00
2022-09-16T04:09:32.829Z,100.00
2022-09-16T04:11:59.932Z,100.00
2022-09-16T04:14:27.911Z,100.00
2022-09-16T04:16:55.137Z,100.00
2022-09-16T04:19:23.153Z,100.00
2022-09-16T04:21:50.372Z,100.00
2022-09-16T04:24:17.589Z,100.00
2022-09-16T04:26:46.383Z,100.00
2022-09-16T04:29:13.665Z,100.00
2022-09-16T04:31:40.881Z,100.00
2022-09-16T04:34:08.733Z,100.00
2022-09-16T04:36:35.768Z,100.00
2022-09-16T04:39:02.816Z,100.00
2022-09-16T04:41:29.910Z,100.00
2022-09-16T04:43:57.482Z,100.00
2022-09-16T04:46:25.100Z,100.00
2022-09-16T04:48:52.640Z,100.00
2022-09-16T04:51:19.969Z,100.00
2022-09-16T04:53:47.631Z,100.00
2022-09-16T04:56:18.603Z,100.00
2022-09-16T04:58:46.538Z,100.00
2022-09-16T05:01:14.780Z,100.00
2022-09-16T05:03:42.278Z,100.00
2022-09-16T05:06:18.380Z,100.00
2022-09-16T05:08:47.893Z,100.00
2022-09-16T05:11:16.212Z,100.00
2022-09-16T05:13:43.399Z,100.00
2022-09-16T05:16:11.515Z,100.00
2022-09-16T05:18:39.053Z,100.00
2022-09-16T05:21:06.985Z,100.00
2022-09-16T05:23:34.180Z,100.00
2022-09-16T05:26:05.320Z,100.00
2022-09-16T05:28:32.767Z,99.52
2022-09-16T05:31:15.237Z,98.52
2022-09-16T05:33:44.738Z,97.96
2022-09-16T05:36:12.990Z,97.87
2022-09-16T05:38:40.030Z,97.71
2022-09-16T05:41:07.145Z,97.42
2022-09-16T05:43:35.005Z,97.70
2022-09-16T05:46:02.215Z,96.98
2022-09-16T05:48:29.366Z,97.20
2022-09-16T05:50:57.794Z,96.31
2022-09-16T05:53:25.664Z,96.54
2022-09-16T05:55:59.553Z,97.29
2022-09-16T05:58:27.281Z,97.48
2022-09-16T06:01:01.076Z,97.13
2022-09-16T06:03:28.329Z,96.86
2022-09-16T06:06:14.193Z,95.88
2022-09-16T06:08:41.636Z,95.32
2022-09-16T06:11:09.272Z,94.50
2022-09-16T06:13:36.980Z,94.95
2022-09-16T06:16:04.951Z,95.88
2022-09-16T06:18:33.308Z,96.54
2022-09-16T06:21:03.014Z,95.46
2022-09-16T06:23:30.149Z,94.11
2022-09-16T06:26:00.751Z,92.79
2022-09-16T06:28:27.835Z,91.54
2022-09-16T06:31:04.765Z,88.18
2022-09-16T06:33:32.369Z,87.69
2022-09-16T06:36:02.429Z,86.16
2022-09-16T06:38:29.548Z,86.01
2022-09-16T06:41:03.404Z,86.85
2022-09-16T06:43:30.646Z,86.48
2022-09-16T06:46:10.265Z,85.31
2022-09-16T06:48:37.484Z,84.21
2022-09-16T06:51:04.965Z,84.47
2022-09-16T06:53:32.107Z,84.32
2022-09-16T06:56:03.145Z,84.70
2022-09-16T06:58:33.788Z,84.94
2022-09-16T07:01:11.039Z,85.00
2022-09-16T07:03:38.681Z,85.69
2022-09-16T07:06:05.958Z,87.51
2022-09-16T07:08:33.362Z,88.25
2022-09-16T07:11:02.006Z,89.32
2022-09-16T07:13:29.239Z,90.15
2022-09-16T07:16:12.737Z,89.79
2022-09-16T07:18:41.227Z,89.02
2022-09-16T07:21:12.159Z,88.69
2022-09-16T07:23:39.367Z,88.38
2022-09-16T07:26:10.331Z,88.36
2022-09-16T07:28:37.796Z,86.88
2022-09-16T07:31:08.687Z,85.20
2022-09-16T07:33:37.232Z,83.01
2022-09-16T07:36:05.321Z,82.55
2022-09-16T07:38:33.245Z,81.12
2022-09-16T07:41:14.130Z,77.82
2022-09-16T07:43:41.961Z,79.46
2022-09-16T07:46:10.530Z,80.55
2022-09-16T07:48:37.762Z,81.38
2022-09-16T07:51:08.642Z,81.05
2022-09-16T07:53:35.874Z,81.33
2022-09-16T07:56:03.823Z,81.79
2022-09-16T07:58:30.905Z,80.36
2022-09-16T08:01:04.010Z,81.18
2022-09-16T08:03:32.478Z,81.42
2022-09-16T08:06:06.912Z,80.65
2022-09-16T08:08:35.770Z,80.28
2022-09-16T08:11:02.954Z,80.52
2022-09-16T08:13:31.933Z,80.10
2022-09-16T08:16:04.054Z,79.76
2022-09-16T08:18:31.728Z,76.99
2022-09-16T08:20:59.577Z,76.29
2022-09-16T08:23:26.783Z,77.27
2022-09-16T08:25:58.510Z,77.65
2022-09-16T08:28:25.559Z,77.19
2022-09-16T08:30:53.366Z,76.84
2022-09-16T08:33:23.101Z,75.15
2022-09-16T08:35:59.689Z,74.79
2022-09-16T08:38:26.825Z,72.77
2022-09-16T08:41:06.837Z,71.79
2022-09-16T08:43:45.707Z,72.60
2022-09-16T08:46:18.458Z,74.95
2022-09-16T08:49:07.464Z,75.13
2022-09-16T08:51:34.640Z,74.39
2022-09-16T08:54:25.030Z,74.31
2022-09-16T08:56:53.448Z,75.36
2022-09-16T08:59:22.013Z,76.51
2022-09-16T09:01:50.423Z,76.51
2022-09-16T09:04:17.707Z,77.06
2022-09-16T09:06:57.950Z,77.71
2022-09-16T09:09:31.461Z,78.31
2022-09-16T09:11:58.507Z,78.37
2022-09-16T09:14:26.488Z,78.29
2022-09-16T09:17:13.039Z,77.92
2022-09-16T09:20:05.764Z,78.00
2022-09-16T09:22:52.002Z,78.91
2022-09-16T09:25:25.075Z,78.61
2022-09-16T09:27:55.070Z,79.78
2022-09-16T09:30:25.675Z,79.44
2022-09-16T09:33:34.545Z,79.44
2022-09-16T09:36:03.235Z,78.12
2022-09-16T09:38:49.473Z,77.87
2022-09-16T09:41:16.577Z,78.60
2022-09-16T09:43:49.818Z,78.97
2022-09-16T09:46:20.408Z,79.43
2022-09-16T09:48:52.063Z,79.78
2022-09-16T09:51:27.836Z,79.98
2022-09-16T09:53:56.968Z,79.22
2022-09-16T09:56:25.420Z,78.78
2022-09-16T09:59:11.280Z,79.67
2022-09-16T10:01:38.557Z,78.46
2022-09-16T10:04:11.062Z,78.28
2022-09-16T10:06:38.717Z,77.37
2022-09-16T10:09:06.055Z,77.80
2022-09-16T10:11:34.423Z,76.23
2022-09-16T10:14:02.240Z,76.63
2022-09-16T10:16:31.505Z,76.08
2022-09-16T10:19:03.703Z,76.86
2022-09-16T10:21:46.167Z,76.90
2022-09-16T10:24:30.444Z,76.45
2022-09-16T10:26:58.038Z,75.63
2022-09-16T10:29:25.324Z,72.82
2022-09-16T10:31:52.522Z,70.07
2022-09-16T10:34:19.913Z,66.86
2022-09-16T10:36:47.047Z,64.38
2022-09-16T10:39:21.725Z,65.11
2022-09-16T10:41:48.943Z,66.64
2022-09-16T10:44:36.672Z,67.71
2022-09-16T10:47:09.383Z,69.35
2022-09-16T10:49:46.477Z,66.92
2022-09-16T10:52:15.609Z,68.30
2022-09-16T10:54:42.739Z,71.02
2022-09-16T10:57:31.793Z,74.15
2022-09-16T11:00:10.902Z,75.92
2022-09-16T11:02:50.422Z,76.45
2022-09-16T11:05:29.757Z,77.85
2022-09-16T11:07:56.835Z,78.47
2022-09-16T11:10:35.878Z,78.38
2022-09-16T11:13:03.061Z,80.57
2022-09-16T11:15:37.185Z,81.60
2022-09-16T11:18:20.637Z,82.65
2022-09-16T11:20:47.690Z,82.16
2022-09-16T11:23:24.210Z,81.97
2022-09-16T11:26:00.628Z,81.73
2022-09-16T11:28:40.610Z,82.45
2022-09-16T11:31:20.971Z,82.62
2022-09-16T11:34:23.692Z,82.41
2022-09-16T11:37:06.111Z,82.68
2022-09-16T11:39:39.073Z,81.81
2022-09-16T11:42:16.827Z,83.37
2022-09-16T11:44:44.104Z,82.54
2022-09-16T11:47:23.252Z,83.05
2022-09-16T11:50:05.296Z,83.07
2022-09-16T11:52:32.517Z,82.97
2022-09-16T11:55:03.936Z,83.75
2022-09-16T11:57:32.695Z,83.64
2022-09-16T12:00:00.931Z,85.55
2022-09-16T12:02:39.765Z,85.53
2022-09-16T12:05:11.966Z,84.64
2022-09-16T12:07:45.734Z,84.07
2022-09-16T12:10:14.801Z,84.33
2022-09-16T12:12:44.391Z,84.12
2022-09-16T12:15:16.819Z,84.15
2022-09-16T12:17:46.293Z,81.61
2022-09-16T12:20:21.229Z,78.66
2022-09-16T12:22:49.410Z,79.94
2022-09-16T12:25:22.570Z,81.49
2022-09-16T12:27:52.538Z,81.53
2022-09-16T12:30:19.718Z,81.15
2022-09-16T12:33:06.301Z,80.34
2022-09-16T12:35:34.608Z,80.17
2022-09-16T12:38:02.104Z,77.35
2022-09-16T12:40:32.393Z,74.13
2022-09-16T12:43:03.216Z,71.97
2022-09-16T12:45:48.744Z,71.24
2022-09-16T12:48:34.492Z,73.55
2022-09-16T12:51:01.549Z,76.86
2022-09-16T12:53:49.386Z,78.46
2022-09-16T12:56:16.731Z,77.93
2022-09-16T12:59:02.699Z,78.57
2022-09-16T13:01:31.477Z,79.37
2022-09-16T13:04:04.011Z,79.65
2022-09-16T13:06:33.271Z,79.93
2022-09-16T13:09:21.202Z,80.96
2022-09-16T13:14:46.073Z,81.44
2022-09-16T13:17:13.772Z,82.45
2022-09-16T13:20:02.407Z,81.81
2022-09-16T13:22:36.009Z,73.99
2022-09-16T13:25:18.937Z,71.52
2022-09-16T13:28:12.312Z,74.35
2022-09-16T13:30:39.854Z,75.14
2022-09-16T13:33:10.036Z,76.45
2022-09-16T13:35:38.640Z,72.92
2022-09-16T13:38:21.523Z,68.35
2022-09-16T13:40:55.858Z,66.21
2022-09-16T13:43:55.409Z,65.33
2022-09-16T13:46:28.411Z,64.38
2022-09-16T13:48:55.695Z,65.73
2022-09-16T13:51:22.798Z,66.18
2022-09-16T13:53:50.707Z,65.89
2022-09-16T13:56:17.737Z,69.11
2022-09-16T13:58:57.964Z,73.14
2022-09-16T14:01:42.185Z,74.20
2022-09-16T14:04:27.998Z,71.37
2022-09-16T14:07:04.735Z,65.17
2022-09-16T14:09:54.784Z,64.67
2022-09-16T14:12:31.325Z,63.64
2022-09-16T14:14:59.012Z,63.13
2022-09-16T14:17:27.710Z,60.38
2022-09-16T14:19:57.396Z,59.52
2022-09-16T14:22:27.145Z,64.78
2022-09-16T14:25:05.828Z,70.37
2022-09-16T14:27:40.522Z,71.95
2022-09-16T14:30:14.951Z,75.31
2022-09-16T14:32:41.978Z,76.46
2022-09-16T14:35:09.980Z,78.22
2022-09-16T14:37:37.516Z,79.60
2022-09-16T14:40:07.230Z,80.96
2022-09-16T14:42:34.379Z,81.20
2022-09-16T14:45:01.507Z,82.53
2022-09-16T14:47:47.439Z,82.51
2022-09-16T14:50:19.521Z,83.13
2022-09-16T14:52:56.761Z,84.46
2022-09-16T14:55:25.272Z,85.45
2022-09-16T14:57:52.423Z,86.97
2022-09-16T15:00:20.026Z,87.41
2022-09-16T15:02:49.962Z,88.35
2022-09-16T15:05:24.443Z,88.78
2022-09-16T15:08:12.654Z,88.91
2022-09-16T15:10:53.226Z,89.73
2022-09-16T15:13:21.849Z,89.82
2022-09-16T15:15:49.773Z,90.41
2022-09-16T15:18:28.528Z,89.75
2022-09-16T15:21:04.709Z,90.91
2022-09-16T15:23:31.836Z,91.99
2022-09-16T15:25:59.832Z,92.64
2022-09-16T15:28:26.908Z,92.91
2022-09-16T15:30:55.362Z,92.17
2022-09-16T15:33:29.968Z,91.50
2022-09-16T15:36:01.816Z,90.51
2022-09-16T15:38:28.913Z,91.61
2022-09-16T15:41:06.025Z,91.59
2022-09-16T15:43:38.311Z,92.24
2022-09-16T15:46:25.899Z,92.39
2022-09-16T15:48:57.327Z,92.97
2022-09-16T15:51:29.256Z,93.17
2022-09-16T15:53:58.087Z,93.40
2022-09-16T15:56:26.642Z,93.45
2022-09-16T15:59:01.629Z,93.90
2022-09-16T16:01:35.625Z,93.94
2022-09-16T16:04:03.185Z,94.01
2022-09-16T16:06:45.869Z,94.40
2022-09-16T16:09:28.833Z,93.88
2022-09-16T16:12:00.036Z,92.15
2022-09-16T16:14:30.887Z,93.01
2022-09-16T16:17:13.268Z,93.57
2022-09-16T16:19:42.192Z,93.35
2022-09-16T16:22:09.810Z,93.03
2022-09-16T16:24:37.400Z,93.25
2022-09-16T16:27:04.600Z,92.64
2022-09-16T16:29:32.089Z,92.89
2022-09-16T16:32:01.977Z,93.12
2022-09-16T16:34:31.402Z,92.72
2022-09-16T16:36:58.584Z,92.02
2022-09-16T16:39:25.726Z,92.15
2022-09-16T16:41:55.438Z,91.48
2022-09-16T16:44:22.813Z,91.61
2022-09-16T16:46:53.721Z,91.16
2022-09-16T16:49:21.135Z,90.97
2022-09-16T16:51:48.827Z,91.28
2022-09-16T16:54:16.120Z,91.31
2022-09-16T16:56:43.230Z,92.43
2022-09-16T16:59:10.273Z,93.80
2022-09-16T17:01:37.786Z,93.72
2022-09-16T17:04:06.109Z,94.12
2022-09-16T17:06:34.816Z,94.30
2022-09-16T17:09:01.980Z,94.91
2022-09-16T17:11:30.164Z,95.19
2022-09-16T17:13:58.797Z,95.54
2022-09-16T17:16:26.056Z,95.17
2022-09-16T17:18:53.217Z,95.61
2022-09-16T17:21:21.179Z,95.64
2022-09-16T17:23:49.019Z,95.70
2022-09-16T17:26:16.185Z,95.57
2022-09-16T17:28:43.941Z,95.22
2022-09-16T17:31:11.643Z,95.46
2022-09-16T17:33:38.960Z,95.10
2022-09-16T17:36:06.937Z,94.35
2022-09-16T17:38:34.439Z,94.09
2022-09-16T17:41:08.504Z,93.84
2022-09-16T17:43:35.904Z,93.89
2022-09-16T17:46:03.625Z,94.46
2022-09-16T17:48:31.857Z,94.37
2022-09-16T17:50:59.102Z,94.35
2022-09-16T17:53:26.210Z,94.59
2022-09-16T17:55:53.231Z,94.67
2022-09-16T17:58:20.557Z,94.83
2022-09-16T18:00:47.584Z,95.27
2022-09-16T18:03:14.695Z,95.71
2022-09-16T18:05:41.762Z,96.20
2022-09-16T18:08:09.068Z,96.34
2022-09-16T18:10:36.375Z,96.39
2022-09-16T18:13:05.028Z,96.23
2022-09-16T18:15:32.079Z,96.15
2022-09-16T18:17:59.610Z,96.69
2022-09-16T18:20:26.640Z,97.14
2022-09-16T18:22:54.418Z,97.33
2022-09-16T18:25:21.440Z,97.39
2022-09-16T18:27:49.389Z,96.99
2022-09-16T18:30:16.741Z,96.92
2022-09-16T18:32:43.806Z,97.93
2022-09-16T18:35:12.623Z,98.87
2022-09-16T18:37:39.742Z,99.42
2022-09-16T18:40:07.235Z,99.50
2022-09-16T18:42:34.463Z,99.86
2022-09-16T18:45:01.639Z,99.84
2022-09-16T18:47:28.730Z,100.00
2022-09-16T18:49:55.842Z,100.00
2022-09-16T18:52:23.073Z,100.00
2022-09-16T18:54:50.263Z,99.96
2022-09-16T18:57:17.709Z,100.00
2022-09-16T18:59:44.860Z,100.00
2022-09-16T19:02:13.478Z,100.00
2022-09-16T19:04:41.326Z,100.00
2022-09-16T19:07:09.576Z,100.00
2022-09-16T19:09:37.480Z,100.00
2022-09-16T19:12:04.915Z,100.00
2022-09-16T19:14:33.085Z,100.00
2022-09-16T19:17:00.353Z,100.00
2022-09-16T19:19:27.747Z,100.00
2022-09-16T19:21:55.328Z,100.00
2022-09-16T19:24:23.083Z,100.00
2022-09-16T19:26:52.012Z,100.00
2022-09-16T19:29:19.299Z,100.00
2022-09-16T19:31:46.828Z,100.00
2022-09-16T19:34:14.523Z,100.00
2022-09-16T19:36:41.698Z,100.00
2022-09-16T19:39:08.822Z,100.00
2022-09-16T19:41:36.583Z,100.00
2022-09-16T19:44:04.573Z,100.00
2022-09-16T19:46:33.173Z,100.00
2022-09-16T19:49:00.294Z,100.00
2022-09-16T19:51:29.216Z,100.00
2022-09-16T19:53:56.437Z,100.00
2022-09-16T19:56:28.190Z,100.00
2022-09-16T19:58:55.278Z,100.00
2022-09-16T20:01:23.305Z,100.00
2022-09-16T20:03:50.706Z,100.00
2022-09-16T20:06:19.105Z,100.00
2022-09-16T20:08:47.988Z,100.00
2022-09-16T20:11:17.038Z,100.00
2022-09-16T20:13:50.850Z,100.00
2022-09-16T20:16:18.261Z,100.00
2022-09-16T20:18:46.073Z,100.00
2022-09-16T20:21:14.755Z,100.00
2022-09-16T20:23:41.961Z,100.00
2022-09-16T20:26:09.308Z,100.00
2022-09-16T20:28:37.842Z,100.00
2022-09-16T20:31:05.230Z,100.00
2022-09-16T20:33:33.481Z,100.00
2022-09-16T20:36:04.424Z,100.00
2022-09-16T20:38:31.483Z,100.00
2022-09-16T20:41:03.445Z,100.00
2022-09-16T20:43:31.110Z,100.00
2022-09-16T20:46:03.184Z,100.00
2022-09-16T20:48:30.642Z,100.00
2022-09-16T20:50:57.716Z,100.00
2022-09-16T20:53:24.776Z,100.00
2022-09-16T20:55:52.045Z,100.00
2022-09-16T20:58:19.157Z,100.00
2022-09-16T21:00:46.367Z,100.00
2022-09-16T21:03:15.047Z,100.00
2022-09-16T21:05:42.209Z,100.00
2022-09-16T21:08:09.276Z,100.00
2022-09-16T21:10:38.460Z,100.00
2022-09-16T21:13:06.559Z,100.00
2022-09-16T21:15:33.999Z,100.00
2022-09-16T21:18:01.179Z,100.00
2022-09-16T21:20:28.624Z,100.00
2022-09-16T21:22:55.641Z,100.00
2022-09-16T21:25:24.739Z,100.00
2022-09-16T21:27:52.029Z,100.00
2022-09-16T21:30:19.218Z,100.00
2022-09-16T21:32:46.229Z,100.00
2022-09-16T21:35:14.424Z,100.00
2022-09-16T21:37:41.534Z,100.00
2022-09-16T21:40:10.238Z,100.00
2022-09-16T21:42:37.360Z,100.00
2022-09-16T21:45:04.707Z,100.00
2022-09-16T21:47:32.121Z,100.00
2022-09-16T21:50:00.890Z,100.00
2022-09-16T21:52:27.927Z,100.00
2022-09-16T21:54:54.934Z,100.00
2022-09-16T21:57:22.222Z,100.00
2022-09-16T21:59:49.266Z,100.00
2022-09-16T22:02:16.482Z,100.00
2022-09-16T22:04:43.524Z,100.00
2022-09-16T22:07:12.341Z,100.00
2022-09-16T22:09:39.416Z,100.00
2022-09-16T22:12:08.456Z,100.00
2022-09-16T22:14:35.491Z,99.75
2022-09-16T22:17:02.574Z,99.72
2022-09-16T22:19:29.650Z,100.00
2022-09-16T22:21:56.682Z,100.00
2022-09-16T22:24:23.751Z,100.00
2022-09-16T22:26:51.010Z,100.00
2022-09-16T22:29:18.194Z,100.00
2022-09-16T22:31:45.320Z,100.00
2022-09-16T22:34:12.492Z,100.00
2022-09-16T22:36:42.013Z,99.96
2022-09-16T22:39:13.165Z,100.00
2022-09-16T22:41:40.184Z,100.00
2022-09-16T22:44:07.244Z,100.00
2022-09-16T22:46:39.036Z,100.00
2022-09-16T22:49:06.347Z,100.00
2022-09-16T22:51:33.477Z,100.00
2022-09-16T22:54:05.164Z,99.91
2022-09-16T22:56:33.468Z,99.95
2022-09-16T22:59:01.320Z,100.00
2022-09-16T23:01:31.954Z,100.00
2022-09-16T23:03:59.731Z,99.88
2022-09-16T23:06:27.292Z,99.72
2022-09-16T23:08:54.461Z,100.00
2022-09-16T23:11:23.563Z,100.00
2022-09-16T23:13:52.763Z,100.00
2022-09-16T23:16:21.138Z,100.00
2022-09-16T23:18:49.109Z,100.00
2022-09-16T23:21:17.904Z,100.00
2022-09-16T23:23:45.900Z,100.00
2022-09-16T23:26:13.891Z,100.00
2022-09-16T23:28:40.952Z,100.00
2022-09-16T23:31:08.996Z,100.00
2022-09-16T23:33:36.381Z,100.00
2022-09-16T23:36:03.601Z,100.00
2022-09-16T23:38:30.902Z,99.77
2022-09-16T23:41:03.112Z,99.80
2022-09-16T23:43:30.520Z,99.70
2022-09-16T23:45:57.592Z,99.54
2022-09-16T23:48:24.785Z,99.39
2022-09-16T23:50:51.788Z,98.94
2022-09-16T23:53:18.817Z,98.69
2022-09-16T23:55:45.832Z,98.70
2022-09-16T23:58:13.614Z,98.97
